sensor_id;sensor_type;location;lat;lon;timestamp;P1;durP1;ratioP1;P2;durP2;ratioP2
2201;SDS011;1107;48.654;9.250;2023-07-20T00:02:04;5.73;;;3.33;;
2201;SDS011;1107;48.654;9.250;2023-07-20T00:04:33;4.00;;;3.70;;
2201;SDS011;1107;48.654;9.250;2023-07-20T00:07:00;4.23;;;3.40;;
2201;SDS011;1107;48.654;9.250;2023-07-20T00:09:28;3.80;;;3.60;;
2201;SDS011;1107;48.654;9.250;2023-07-20T00:11:55;10.50;;;3.50;;
2201;SDS011;1107;48.654;9.250;2023-07-20T00:14:24;3.90;;;3.40;;
2201;SDS011;1107;48.654;9.250;2023-07-20T00:16:51;9.50;;;3.03;;
2201;SDS011;1107;48.654;9.250;2023-07-20T00:19:21;3.27;;;3.07;;
2201;SDS011;1107;48.654;9.250;2023-07-20T00:21:49;4.33;;;3.13;;
2201;SDS011;1107;48.654;9.250;2023-07-20T00:24:30;3.50;;;3.30;;
2201;SDS011;1107;48.654;9.250;2023-07-20T00:26:57;3.30;;;3.10;;
2201;SDS011;1107;48.654;9.250;2023-07-20T00:29:26;3.10;;;2.90;;
2201;SDS011;1107;48.654;9.250;2023-07-20T00:31:52;3.93;;;3.57;;
2201;SDS011;1107;48.654;9.250;2023-07-20T00:34:19;4.43;;;3.03;;
2201;SDS011;1107;48.654;9.250;2023-07-20T00:36:46;3.20;;;3.00;;
2201;SDS011;1107;48.654;9.250;2023-07-20T00:39:14;4.73;;;2.97;;
2201;SDS011;1107;48.654;9.250;2023-07-20T00:41:43;3.77;;;3.50;;
2201;SDS011;1107;48.654;9.250;2023-07-20T00:44:10;3.20;;;3.00;;
2201;SDS011;1107;48.654;9.250;2023-07-20T00:46:37;3.37;;;3.17;;
2201;SDS011;1107;48.654;9.250;2023-07-20T00:49:04;3.03;;;2.83;;
2201;SDS011;1107;48.654;9.250;2023-07-20T00:51:31;3.40;;;3.10;;
2201;SDS011;1107;48.654;9.250;2023-07-20T00:53:58;3.50;;;3.30;;
2201;SDS011;1107;48.654;9.250;2023-07-20T00:56:26;7.03;;;3.10;;
2201;SDS011;1107;48.654;9.250;2023-07-20T00:58:54;2.93;;;2.73;;
2201;SDS011;1107;48.654;9.250;2023-07-20T01:01:21;2.80;;;2.60;;
2201;SDS011;1107;48.654;9.250;2023-07-20T01:03:48;3.27;;;2.90;;
2201;SDS011;1107;48.654;9.250;2023-07-20T01:06:19;2.93;;;2.73;;
2201;SDS011;1107;48.654;9.250;2023-07-20T01:08:55;3.07;;;2.87;;
2201;SDS011;1107;48.654;9.250;2023-07-20T01:11:29;3.70;;;2.93;;
2201;SDS011;1107;48.654;9.250;2023-07-20T01:14:05;3.07;;;2.87;;
2201;SDS011;1107;48.654;9.250;2023-07-20T01:16:32;3.20;;;3.00;;
2201;SDS011;1107;48.654;9.250;2023-07-20T01:19:00;4.13;;;3.40;;
2201;SDS011;1107;48.654;9.250;2023-07-20T01:21:28;3.47;;;3.27;;
2201;SDS011;1107;48.654;9.250;2023-07-20T01:27:26;14.23;;;4.27;;
2201;SDS011;1107;48.654;9.250;2023-07-20T01:30:19;3.47;;;3.27;;
2201;SDS011;1107;48.654;9.250;2023-07-20T01:33:00;3.57;;;3.27;;
2201;SDS011;1107;48.654;9.250;2023-07-20T01:35:29;3.40;;;3.10;;
2201;SDS011;1107;48.654;9.250;2023-07-20T01:37:57;4.13;;;3.83;;
2201;SDS011;1107;48.654;9.250;2023-07-20T01:40:25;3.40;;;3.17;;
2201;SDS011;1107;48.654;9.250;2023-07-20T01:42:53;3.33;;;3.13;;
2201;SDS011;1107;48.654;9.250;2023-07-20T01:45:20;4.63;;;3.50;;
2201;SDS011;1107;48.654;9.250;2023-07-20T01:47:47;3.40;;;3.20;;
2201;SDS011;1107;48.654;9.250;2023-07-20T01:50:15;3.40;;;3.10;;
2201;SDS011;1107;48.654;9.250;2023-07-20T01:52:42;3.97;;;3.50;;
2201;SDS011;1107;48.654;9.250;2023-07-20T01:55:09;2.93;;;2.73;;
2201;SDS011;1107;48.654;9.250;2023-07-20T01:57:36;3.37;;;3.17;;
2201;SDS011;1107;48.654;9.250;2023-07-20T02:00:04;3.70;;;3.40;;
2201;SDS011;1107;48.654;9.250;2023-07-20T02:02:32;4.83;;;3.37;;
2201;SDS011;1107;48.654;9.250;2023-07-20T02:04:58;3.13;;;2.93;;
2201;SDS011;1107;48.654;9.250;2023-07-20T02:07:27;9.40;;;3.70;;
2201;SDS011;1107;48.654;9.250;2023-07-20T02:09:54;3.67;;;3.47;;
2201;SDS011;1107;48.654;9.250;2023-07-20T02:12:21;3.40;;;3.20;;
2201;SDS011;1107;48.654;9.250;2023-07-20T02:14:48;3.60;;;3.30;;
2201;SDS011;1107;48.654;9.250;2023-07-20T02:17:15;10.60;;;3.10;;
2201;SDS011;1107;48.654;9.250;2023-07-20T02:19:42;2.93;;;2.73;;
2201;SDS011;1107;48.654;9.250;2023-07-20T02:22:09;3.70;;;3.50;;
2201;SDS011;1107;48.654;9.250;2023-07-20T02:24:37;3.57;;;3.37;;
2201;SDS011;1107;48.654;9.250;2023-07-20T02:27:04;4.17;;;2.87;;
2201;SDS011;1107;48.654;9.250;2023-07-20T02:29:32;3.50;;;3.30;;
2201;SDS011;1107;48.654;9.250;2023-07-20T02:31:59;3.73;;;3.53;;
2201;SDS011;1107;48.654;9.250;2023-07-20T02:34:26;4.00;;;3.00;;
2201;SDS011;1107;48.654;9.250;2023-07-20T02:44:16;3.27;;;2.97;;
2201;SDS011;1107;48.654;9.250;2023-07-20T02:46:43;3.20;;;3.00;;
2201;SDS011;1107;48.654;9.250;2023-07-20T02:49:09;4.73;;;3.53;;
2201;SDS011;1107;48.654;9.250;2023-07-20T02:51:36;4.73;;;3.53;;
2201;SDS011;1107;48.654;9.250;2023-07-20T02:54:03;3.20;;;3.00;;
2201;SDS011;1107;48.654;9.250;2023-07-20T02:56:30;4.17;;;3.77;;
2201;SDS011;1107;48.654;9.250;2023-07-20T02:58:58;3.43;;;3.13;;
2201;SDS011;1107;48.654;9.250;2023-07-20T03:01:27;3.27;;;3.07;;
2201;SDS011;1107;48.654;9.250;2023-07-20T03:03:54;3.70;;;3.37;;
2201;SDS011;1107;48.654;9.250;2023-07-20T03:06:21;3.07;;;2.87;;
2201;SDS011;1107;48.654;9.250;2023-07-20T03:08:48;3.70;;;3.40;;
2201;SDS011;1107;48.654;9.250;2023-07-20T03:11:17;3.70;;;3.50;;
2201;SDS011;1107;48.654;9.250;2023-07-20T03:13:45;3.87;;;3.67;;
2201;SDS011;1107;48.654;9.250;2023-07-20T03:16:17;5.00;;;3.00;;
2201;SDS011;1107;48.654;9.250;2023-07-20T03:18:45;3.80;;;3.40;;
2201;SDS011;1107;48.654;9.250;2023-07-20T03:21:12;3.70;;;3.50;;
2201;SDS011;1107;48.654;9.250;2023-07-20T03:23:40;3.80;;;3.60;;
2201;SDS011;1107;48.654;9.250;2023-07-20T03:26:07;3.27;;;3.07;;
2201;SDS011;1107;48.654;9.250;2023-07-20T03:28:34;3.53;;;3.33;;
2201;SDS011;1107;48.654;9.250;2023-07-20T03:31:01;3.87;;;3.40;;
2201;SDS011;1107;48.654;9.250;2023-07-20T03:33:30;3.70;;;3.43;;
2201;SDS011;1107;48.654;9.250;2023-07-20T03:35:58;3.47;;;3.27;;
2201;SDS011;1107;48.654;9.250;2023-07-20T03:38:26;3.00;;;2.80;;
2201;SDS011;1107;48.654;9.250;2023-07-20T03:40:54;3.43;;;3.23;;
2201;SDS011;1107;48.654;9.250;2023-07-20T03:43:22;3.63;;;3.33;;
2201;SDS011;1107;48.654;9.250;2023-07-20T03:45:50;3.77;;;3.50;;
2201;SDS011;1107;48.654;9.250;2023-07-20T03:48:18;3.20;;;3.00;;
2201;SDS011;1107;48.654;9.250;2023-07-20T03:50:48;3.83;;;3.63;;
2201;SDS011;1107;48.654;9.250;2023-07-20T03:53:16;3.50;;;3.30;;
2201;SDS011;1107;48.654;9.250;2023-07-20T03:55:44;3.93;;;3.63;;
2201;SDS011;1107;48.654;9.250;2023-07-20T03:58:11;4.20;;;3.90;;
2201;SDS011;1107;48.654;9.250;2023-07-20T04:00:39;5.57;;;3.60;;
2201;SDS011;1107;48.654;9.250;2023-07-20T04:03:06;3.70;;;3.50;;
2201;SDS011;1107;48.654;9.250;2023-07-20T04:05:33;4.00;;;3.50;;
2201;SDS011;1107;48.654;9.250;2023-07-20T04:08:01;3.53;;;3.33;;
2201;SDS011;1107;48.654;9.250;2023-07-20T04:10:28;6.03;;;3.40;;
2201;SDS011;1107;48.654;9.250;2023-07-20T04:12:55;3.30;;;3.10;;
2201;SDS011;1107;48.654;9.250;2023-07-20T04:15:22;3.23;;;3.03;;
2201;SDS011;1107;48.654;9.250;2023-07-20T04:17:48;4.73;;;3.50;;
2201;SDS011;1107;48.654;9.250;2023-07-20T04:20:15;3.23;;;3.03;;
2201;SDS011;1107;48.654;9.250;2023-07-20T04:22:43;7.20;;;3.23;;
2201;SDS011;1107;48.654;9.250;2023-07-20T04:25:11;7.70;;;3.93;;
2201;SDS011;1107;48.654;9.250;2023-07-20T04:27:38;3.50;;;3.30;;
2201;SDS011;1107;48.654;9.250;2023-07-20T04:30:06;3.70;;;3.50;;
2201;SDS011;1107;48.654;9.250;2023-07-20T04:32:34;3.10;;;2.90;;
2201;SDS011;1107;48.654;9.250;2023-07-20T04:35:01;8.37;;;3.77;;
2201;SDS011;1107;48.654;9.250;2023-07-20T04:37:32;3.13;;;2.93;;
2201;SDS011;1107;48.654;9.250;2023-07-20T04:39:59;3.37;;;3.17;;
2201;SDS011;1107;48.654;9.250;2023-07-20T04:42:27;3.30;;;3.10;;
2201;SDS011;1107;48.654;9.250;2023-07-20T04:44:54;7.93;;;3.23;;
2201;SDS011;1107;48.654;9.250;2023-07-20T04:47:21;3.73;;;3.43;;
2201;SDS011;1107;48.654;9.250;2023-07-20T04:49:48;3.20;;;3.00;;
2201;SDS011;1107;48.654;9.250;2023-07-20T04:52:15;4.17;;;3.20;;
2201;SDS011;1107;48.654;9.250;2023-07-20T04:54:41;3.60;;;3.30;;
2201;SDS011;1107;48.654;9.250;2023-07-20T04:57:09;4.00;;;3.47;;
2201;SDS011;1107;48.654;9.250;2023-07-20T04:59:38;8.90;;;3.00;;
2201;SDS011;1107;48.654;9.250;2023-07-20T05:02:05;3.17;;;2.97;;
2201;SDS011;1107;48.654;9.250;2023-07-20T05:04:32;3.60;;;2.53;;
2201;SDS011;1107;48.654;9.250;2023-07-20T05:06:59;3.40;;;3.20;;
2201;SDS011;1107;48.654;9.250;2023-07-20T05:09:26;4.23;;;3.00;;
2201;SDS011;1107;48.654;9.250;2023-07-20T05:11:53;3.20;;;3.00;;
2201;SDS011;1107;48.654;9.250;2023-07-20T05:14:20;3.20;;;3.00;;
2201;SDS011;1107;48.654;9.250;2023-07-20T05:16:48;2.77;;;2.57;;
2201;SDS011;1107;48.654;9.250;2023-07-20T05:19:15;3.27;;;3.07;;
2201;SDS011;1107;48.654;9.250;2023-07-20T05:21:42;2.73;;;2.53;;
2201;SDS011;1107;48.654;9.250;2023-07-20T05:24:09;3.37;;;3.17;;
2201;SDS011;1107;48.654;9.250;2023-07-20T05:26:36;3.70;;;3.00;;
2201;SDS011;1107;48.654;9.250;2023-07-20T05:29:03;3.47;;;3.17;;
2201;SDS011;1107;48.654;9.250;2023-07-20T05:31:30;3.10;;;2.90;;
2201;SDS011;1107;48.654;9.250;2023-07-20T05:33:58;3.23;;;2.83;;
2201;SDS011;1107;48.654;9.250;2023-07-20T05:36:25;3.20;;;2.63;;
2201;SDS011;1107;48.654;9.250;2023-07-20T05:38:52;3.00;;;2.80;;
2201;SDS011;1107;48.654;9.250;2023-07-20T05:41:19;3.00;;;2.80;;
2201;SDS011;1107;48.654;9.250;2023-07-20T05:43:47;3.60;;;3.40;;
2201;SDS011;1107;48.654;9.250;2023-07-20T05:46:14;2.80;;;2.60;;
2201;SDS011;1107;48.654;9.250;2023-07-20T05:48:41;2.97;;;2.77;;
2201;SDS011;1107;48.654;9.250;2023-07-20T05:51:09;3.47;;;2.70;;
2201;SDS011;1107;48.654;9.250;2023-07-20T05:53:36;3.20;;;2.97;;
2201;SDS011;1107;48.654;9.250;2023-07-20T05:56:03;2.90;;;2.70;;
2201;SDS011;1107;48.654;9.250;2023-07-20T05:58:31;3.80;;;3.10;;
2201;SDS011;1107;48.654;9.250;2023-07-20T06:00:58;3.20;;;3.00;;
2201;SDS011;1107;48.654;9.250;2023-07-20T06:03:25;2.97;;;2.77;;
2201;SDS011;1107;48.654;9.250;2023-07-20T06:05:52;3.13;;;2.93;;
2201;SDS011;1107;48.654;9.250;2023-07-20T06:08:25;2.73;;;2.53;;
2201;SDS011;1107;48.654;9.250;2023-07-20T06:10:52;2.90;;;2.60;;
2201;SDS011;1107;48.654;9.250;2023-07-20T06:13:19;3.40;;;3.20;;
2201;SDS011;1107;48.654;9.250;2023-07-20T06:15:46;3.37;;;3.07;;
2201;SDS011;1107;48.654;9.250;2023-07-20T06:18:13;2.40;;;2.20;;
2201;SDS011;1107;48.654;9.250;2023-07-20T06:20:40;3.10;;;2.60;;
2201;SDS011;1107;48.654;9.250;2023-07-20T06:23:07;8.87;;;2.80;;
2201;SDS011;1107;48.654;9.250;2023-07-20T06:25:35;7.43;;;2.83;;
2201;SDS011;1107;48.654;9.250;2023-07-20T06:28:02;3.33;;;3.03;;
2201;SDS011;1107;48.654;9.250;2023-07-20T06:30:30;2.67;;;2.30;;
2201;SDS011;1107;48.654;9.250;2023-07-20T06:32:59;6.43;;;2.80;;
2201;SDS011;1107;48.654;9.250;2023-07-20T06:35:26;2.70;;;2.50;;
2201;SDS011;1107;48.654;9.250;2023-07-20T06:37:53;3.90;;;2.57;;
2201;SDS011;1107;48.654;9.250;2023-07-20T06:40:20;3.77;;;2.43;;
2201;SDS011;1107;48.654;9.250;2023-07-20T06:42:48;2.53;;;2.33;;
2201;SDS011;1107;48.654;9.250;2023-07-20T06:45:15;3.23;;;3.03;;
2201;SDS011;1107;48.654;9.250;2023-07-20T06:47:42;2.57;;;2.37;;
2201;SDS011;1107;48.654;9.250;2023-07-20T06:50:10;2.63;;;2.43;;
2201;SDS011;1107;48.654;9.250;2023-07-20T06:52:37;3.10;;;2.67;;
2201;SDS011;1107;48.654;9.250;2023-07-20T06:55:05;2.60;;;2.40;;
2201;SDS011;1107;48.654;9.250;2023-07-20T06:57:33;2.70;;;2.50;;
2201;SDS011;1107;48.654;9.250;2023-07-20T07:00:01;3.90;;;2.50;;
2201;SDS011;1107;48.654;9.250;2023-07-20T07:02:31;2.30;;;2.10;;
2201;SDS011;1107;48.654;9.250;2023-07-20T07:04:59;2.80;;;2.60;;
2201;SDS011;1107;48.654;9.250;2023-07-20T07:07:26;2.70;;;2.47;;
2201;SDS011;1107;48.654;9.250;2023-07-20T07:09:52;3.20;;;3.00;;
2201;SDS011;1107;48.654;9.250;2023-07-20T07:12:19;6.63;;;2.40;;
2201;SDS011;1107;48.654;9.250;2023-07-20T07:14:46;2.80;;;2.60;;
2201;SDS011;1107;48.654;9.250;2023-07-20T07:19:41;2.73;;;2.53;;
2201;SDS011;1107;48.654;9.250;2023-07-20T07:22:09;2.87;;;2.67;;
2201;SDS011;1107;48.654;9.250;2023-07-20T07:24:36;2.97;;;2.77;;
2201;SDS011;1107;48.654;9.250;2023-07-20T07:27:05;2.80;;;2.50;;
2201;SDS011;1107;48.654;9.250;2023-07-20T07:29:32;4.27;;;2.93;;
2201;SDS011;1107;48.654;9.250;2023-07-20T07:31:59;3.23;;;2.93;;
2201;SDS011;1107;48.654;9.250;2023-07-20T07:34:28;3.07;;;2.87;;
2201;SDS011;1107;48.654;9.250;2023-07-20T07:36:55;4.37;;;2.80;;
2201;SDS011;1107;48.654;9.250;2023-07-20T07:39:21;3.30;;;3.00;;
2201;SDS011;1107;48.654;9.250;2023-07-20T07:41:49;3.00;;;2.80;;
2201;SDS011;1107;48.654;9.250;2023-07-20T07:46:43;3.10;;;2.83;;
2201;SDS011;1107;48.654;9.250;2023-07-20T07:49:10;2.90;;;2.70;;
2201;SDS011;1107;48.654;9.250;2023-07-20T07:51:39;2.87;;;2.67;;
2201;SDS011;1107;48.654;9.250;2023-07-20T07:54:06;2.90;;;2.70;;
2201;SDS011;1107;48.654;9.250;2023-07-20T07:56:33;3.10;;;2.90;;
2201;SDS011;1107;48.654;9.250;2023-07-20T07:59:00;3.07;;;2.87;;
2201;SDS011;1107;48.654;9.250;2023-07-20T08:01:28;3.03;;;2.73;;
2201;SDS011;1107;48.654;9.250;2023-07-20T08:03:55;4.70;;;2.90;;
2201;SDS011;1107;48.654;9.250;2023-07-20T08:06:22;5.93;;;2.77;;
2201;SDS011;1107;48.654;9.250;2023-07-20T08:08:50;3.63;;;3.00;;
2201;SDS011;1107;48.654;9.250;2023-07-20T08:11:17;11.27;;;3.00;;
2201;SDS011;1107;48.654;9.250;2023-07-20T08:13:45;3.37;;;3.17;;
2201;SDS011;1107;48.654;9.250;2023-07-20T08:16:12;10.00;;;2.93;;
2201;SDS011;1107;48.654;9.250;2023-07-20T08:18:39;3.43;;;3.23;;
2201;SDS011;1107;48.654;9.250;2023-07-20T08:21:06;4.13;;;3.57;;
2201;SDS011;1107;48.654;9.250;2023-07-20T08:23:33;3.33;;;3.07;;
2201;SDS011;1107;48.654;9.250;2023-07-20T08:26:01;3.73;;;2.93;;
2201;SDS011;1107;48.654;9.250;2023-07-20T08:28:28;2.93;;;2.73;;
2201;SDS011;1107;48.654;9.250;2023-07-20T08:30:55;3.63;;;3.33;;
2201;SDS011;1107;48.654;9.250;2023-07-20T08:33:21;3.20;;;3.00;;
2201;SDS011;1107;48.654;9.250;2023-07-20T08:35:49;3.60;;;3.33;;
2201;SDS011;1107;48.654;9.250;2023-07-20T08:38:16;9.53;;;3.33;;
2201;SDS011;1107;48.654;9.250;2023-07-20T08:40:44;3.40;;;3.10;;
2201;SDS011;1107;48.654;9.250;2023-07-20T08:43:14;4.90;;;4.10;;
2201;SDS011;1107;48.654;9.250;2023-07-20T08:45:42;3.93;;;3.60;;
2201;SDS011;1107;48.654;9.250;2023-07-20T08:48:11;4.00;;;3.70;;
2201;SDS011;1107;48.654;9.250;2023-07-20T08:50:38;3.53;;;3.33;;
2201;SDS011;1107;48.654;9.250;2023-07-20T08:53:06;4.47;;;3.53;;
2201;SDS011;1107;48.654;9.250;2023-07-20T08:55:34;3.50;;;3.27;;
2201;SDS011;1107;48.654;9.250;2023-07-20T08:58:02;3.63;;;3.20;;
2201;SDS011;1107;48.654;9.250;2023-07-20T09:00:33;3.80;;;3.43;;
2201;SDS011;1107;48.654;9.250;2023-07-20T09:03:02;3.50;;;3.30;;
2201;SDS011;1107;48.654;9.250;2023-07-20T09:05:29;3.33;;;3.03;;
2201;SDS011;1107;48.654;9.250;2023-07-20T09:07:56;3.23;;;2.93;;
2201;SDS011;1107;48.654;9.250;2023-07-20T09:10:23;3.50;;;3.30;;
2201;SDS011;1107;48.654;9.250;2023-07-20T09:12:51;3.30;;;3.00;;
2201;SDS011;1107;48.654;9.250;2023-07-20T09:15:18;3.83;;;3.50;;
2201;SDS011;1107;48.654;9.250;2023-07-20T09:17:47;4.17;;;3.87;;
2201;SDS011;1107;48.654;9.250;2023-07-20T09:20:15;3.57;;;3.37;;
2201;SDS011;1107;48.654;9.250;2023-07-20T09:22:43;3.93;;;3.60;;
2201;SDS011;1107;48.654;9.250;2023-07-20T09:25:11;3.63;;;3.33;;
2201;SDS011;1107;48.654;9.250;2023-07-20T09:27:40;3.40;;;3.20;;
2201;SDS011;1107;48.654;9.250;2023-07-20T09:30:08;3.30;;;3.10;;
2201;SDS011;1107;48.654;9.250;2023-07-20T09:35:07;3.43;;;3.13;;
2201;SDS011;1107;48.654;9.250;2023-07-20T09:37:39;3.37;;;3.17;;
2201;SDS011;1107;48.654;9.250;2023-07-20T09:40:12;3.17;;;2.97;;
2201;SDS011;1107;48.654;9.250;2023-07-20T09:42:41;3.40;;;3.00;;
2201;SDS011;1107;48.654;9.250;2023-07-20T09:45:09;3.80;;;3.33;;
2201;SDS011;1107;48.654;9.250;2023-07-20T09:47:36;3.20;;;3.00;;
2201;SDS011;1107;48.654;9.250;2023-07-20T09:50:05;3.00;;;2.80;;
2201;SDS011;1107;48.654;9.250;2023-07-20T09:52:37;3.05;;;2.85;;
2201;SDS011;1107;48.654;9.250;2023-07-20T09:55:06;5.93;;;2.83;;
2201;SDS011;1107;48.654;9.250;2023-07-20T09:57:34;3.10;;;2.90;;
2201;SDS011;1107;48.654;9.250;2023-07-20T10:00:02;8.23;;;3.37;;
2201;SDS011;1107;48.654;9.250;2023-07-20T10:02:39;3.47;;;3.27;;
2201;SDS011;1107;48.654;9.250;2023-07-20T10:05:10;3.63;;;3.43;;
2201;SDS011;1107;48.654;9.250;2023-07-20T10:07:40;3.23;;;3.03;;
2201;SDS011;1107;48.654;9.250;2023-07-20T10:10:14;2.70;;;2.50;;
2201;SDS011;1107;48.654;9.250;2023-07-20T10:12:42;2.50;;;2.30;;
2201;SDS011;1107;48.654;9.250;2023-07-20T10:15:13;3.43;;;2.50;;
2201;SDS011;1107;48.654;9.250;2023-07-20T10:17:46;6.13;;;2.37;;
2201;SDS011;1107;48.654;9.250;2023-07-20T10:20:24;6.00;;;2.60;;
2201;SDS011;1107;48.654;9.250;2023-07-20T10:22:53;6.97;;;2.50;;
2201;SDS011;1107;48.654;9.250;2023-07-20T10:25:20;2.80;;;2.60;;
2201;SDS011;1107;48.654;9.250;2023-07-20T10:27:49;2.83;;;2.63;;
2201;SDS011;1107;48.654;9.250;2023-07-20T10:30:16;3.33;;;2.37;;
2201;SDS011;1107;48.654;9.250;2023-07-20T10:32:45;2.60;;;2.40;;
2201;SDS011;1107;48.654;9.250;2023-07-20T10:35:13;4.57;;;2.43;;
2201;SDS011;1107;48.654;9.250;2023-07-20T10:37:47;3.40;;;2.10;;
2201;SDS011;1107;48.654;9.250;2023-07-20T10:40:25;2.50;;;2.30;;
2201;SDS011;1107;48.654;9.250;2023-07-20T10:42:56;5.40;;;2.40;;
2201;SDS011;1107;48.654;9.250;2023-07-20T10:45:32;3.50;;;2.13;;
2201;SDS011;1107;48.654;9.250;2023-07-20T10:48:14;2.03;;;1.93;;
2201;SDS011;1107;48.654;9.250;2023-07-20T10:50:43;3.40;;;2.13;;
2201;SDS011;1107;48.654;9.250;2023-07-20T10:53:12;2.60;;;2.40;;
2201;SDS011;1107;48.654;9.250;2023-07-20T10:55:40;2.47;;;2.27;;
2201;SDS011;1107;48.654;9.250;2023-07-20T10:58:09;5.93;;;2.57;;
2201;SDS011;1107;48.654;9.250;2023-07-20T11:00:37;1.97;;;1.77;;
2201;SDS011;1107;48.654;9.250;2023-07-20T11:03:26;3.60;;;2.40;;
2201;SDS011;1107;48.654;9.250;2023-07-20T11:05:54;2.43;;;2.10;;
2201;SDS011;1107;48.654;9.250;2023-07-20T11:11:26;2.30;;;2.10;;
2201;SDS011;1107;48.654;9.250;2023-07-20T11:13:55;2.47;;;2.27;;
2201;SDS011;1107;48.654;9.250;2023-07-20T11:16:35;2.30;;;2.10;;
2201;SDS011;1107;48.654;9.250;2023-07-20T11:19:04;2.23;;;2.10;;
2201;SDS011;1107;48.654;9.250;2023-07-20T11:21:42;2.67;;;1.90;;
2201;SDS011;1107;48.654;9.250;2023-07-20T11:24:10;1.93;;;1.83;;
2201;SDS011;1107;48.654;9.250;2023-07-20T11:26:46;2.07;;;1.87;;
2201;SDS011;1107;48.654;9.250;2023-07-20T11:29:15;2.53;;;2.33;;
2201;SDS011;1107;48.654;9.250;2023-07-20T11:31:43;3.80;;;2.00;;
2201;SDS011;1107;48.654;9.250;2023-07-20T11:34:13;2.10;;;1.80;;
2201;SDS011;1107;48.654;9.250;2023-07-20T11:36:41;3.33;;;1.97;;
2201;SDS011;1107;48.654;9.250;2023-07-20T11:39:11;2.47;;;2.27;;
2201;SDS011;1107;48.654;9.250;2023-07-20T11:41:43;2.10;;;2.00;;
2201;SDS011;1107;48.654;9.250;2023-07-20T11:44:13;6.33;;;2.17;;
2201;SDS011;1107;48.654;9.250;2023-07-20T11:46:40;3.13;;;2.20;;
2201;SDS011;1107;48.654;9.250;2023-07-20T11:49:08;5.40;;;2.17;;
2201;SDS011;1107;48.654;9.250;2023-07-20T11:51:35;1.70;;;1.60;;
2201;SDS011;1107;48.654;9.250;2023-07-20T11:54:03;1.90;;;1.80;;
2201;SDS011;1107;48.654;9.250;2023-07-20T11:56:33;2.10;;;2.00;;
2201;SDS011;1107;48.654;9.250;2023-07-20T11:59:01;2.13;;;1.93;;
2201;SDS011;1107;48.654;9.250;2023-07-20T12:01:29;3.67;;;1.90;;
2201;SDS011;1107;48.654;9.250;2023-07-20T12:03:59;2.20;;;2.03;;
2201;SDS011;1107;48.654;9.250;2023-07-20T12:06:28;2.37;;;2.20;;
2201;SDS011;1107;48.654;9.250;2023-07-20T12:08:56;2.03;;;1.90;;
2201;SDS011;1107;48.654;9.250;2023-07-20T12:11:31;3.40;;;2.20;;
2201;SDS011;1107;48.654;9.250;2023-07-20T12:13:58;2.73;;;2.00;;
2201;SDS011;1107;48.654;9.250;2023-07-20T12:16:28;3.30;;;2.30;;
2201;SDS011;1107;48.654;9.250;2023-07-20T12:18:59;2.20;;;2.00;;
2201;SDS011;1107;48.654;9.250;2023-07-20T12:21:27;1.97;;;1.87;;
2201;SDS011;1107;48.654;9.250;2023-07-20T12:23:55;1.93;;;1.83;;
2201;SDS011;1107;48.654;9.250;2023-07-20T12:26:23;2.93;;;2.07;;
2201;SDS011;1107;48.654;9.250;2023-07-20T12:28:50;2.40;;;2.20;;
2201;SDS011;1107;48.654;9.250;2023-07-20T12:31:17;1.60;;;1.50;;
2201;SDS011;1107;48.654;9.250;2023-07-20T12:33:47;2.60;;;2.20;;
2201;SDS011;1107;48.654;9.250;2023-07-20T12:36:14;6.87;;;2.37;;
2201;SDS011;1107;48.654;9.250;2023-07-20T12:38:42;3.90;;;2.00;;
2201;SDS011;1107;48.654;9.250;2023-07-20T12:41:09;2.20;;;2.03;;
2201;SDS011;1107;48.654;9.250;2023-07-20T12:43:39;1.80;;;1.70;;
2201;SDS011;1107;48.654;9.250;2023-07-20T12:46:06;2.17;;;2.07;;
2201;SDS011;1107;48.654;9.250;2023-07-20T12:48:33;2.27;;;2.07;;
2201;SDS011;1107;48.654;9.250;2023-07-20T12:51:03;2.30;;;2.10;;
2201;SDS011;1107;48.654;9.250;2023-07-20T12:53:30;2.07;;;1.87;;
2201;SDS011;1107;48.654;9.250;2023-07-20T12:55:57;2.90;;;1.90;;
2201;SDS011;1107;48.654;9.250;2023-07-20T12:58:25;2.30;;;2.10;;
2201;SDS011;1107;48.654;9.250;2023-07-20T13:00:52;1.83;;;1.63;;
2201;SDS011;1107;48.654;9.250;2023-07-20T13:03:19;2.03;;;1.90;;
2201;SDS011;1107;48.654;9.250;2023-07-20T13:05:47;3.63;;;2.20;;
2201;SDS011;1107;48.654;9.250;2023-07-20T13:08:15;2.83;;;2.00;;
2201;SDS011;1107;48.654;9.250;2023-07-20T13:10:43;3.77;;;1.90;;
2201;SDS011;1107;48.654;9.250;2023-07-20T13:13:10;2.40;;;2.20;;
2201;SDS011;1107;48.654;9.250;2023-07-20T13:15:40;36.33;;;4.97;;
2201;SDS011;1107;48.654;9.250;2023-07-20T13:18:08;2.40;;;2.20;;
2201;SDS011;1107;48.654;9.250;2023-07-20T13:20:35;10.20;;;2.33;;
2201;SDS011;1107;48.654;9.250;2023-07-20T13:23:02;2.00;;;1.90;;
2201;SDS011;1107;48.654;9.250;2023-07-20T13:25:31;4.10;;;1.70;;
2201;SDS011;1107;48.654;9.250;2023-07-20T13:27:58;5.70;;;2.20;;
2201;SDS011;1107;48.654;9.250;2023-07-20T13:30:25;2.20;;;2.00;;
2201;SDS011;1107;48.654;9.250;2023-07-20T13:32:52;2.00;;;1.90;;
2201;SDS011;1107;48.654;9.250;2023-07-20T13:35:19;3.13;;;1.83;;
2201;SDS011;1107;48.654;9.250;2023-07-20T13:37:46;5.30;;;2.20;;
2201;SDS011;1107;48.654;9.250;2023-07-20T13:40:14;3.27;;;2.00;;
2201;SDS011;1107;48.654;9.250;2023-07-20T13:42:45;5.50;;;1.97;;
2201;SDS011;1107;48.654;9.250;2023-07-20T13:45:12;2.33;;;1.77;;
2201;SDS011;1107;48.654;9.250;2023-07-20T13:47:39;2.40;;;2.20;;
2201;SDS011;1107;48.654;9.250;2023-07-20T13:50:06;3.40;;;1.80;;
2201;SDS011;1107;48.654;9.250;2023-07-20T13:52:33;3.07;;;2.00;;
2201;SDS011;1107;48.654;9.250;2023-07-20T13:55:02;2.13;;;1.70;;
2201;SDS011;1107;48.654;9.250;2023-07-20T13:57:29;2.00;;;1.90;;
2201;SDS011;1107;48.654;9.250;2023-07-20T13:59:58;1.90;;;1.70;;
2201;SDS011;1107;48.654;9.250;2023-07-20T14:02:25;2.03;;;1.93;;
2201;SDS011;1107;48.654;9.250;2023-07-20T14:04:53;2.47;;;2.27;;
2201;SDS011;1107;48.654;9.250;2023-07-20T14:07:21;1.90;;;1.70;;
2201;SDS011;1107;48.654;9.250;2023-07-20T14:09:48;2.30;;;2.10;;
2201;SDS011;1107;48.654;9.250;2023-07-20T14:12:15;2.60;;;2.00;;
2201;SDS011;1107;48.654;9.250;2023-07-20T14:14:42;1.90;;;1.80;;
2201;SDS011;1107;48.654;9.250;2023-07-20T14:17:10;2.30;;;2.10;;
2201;SDS011;1107;48.654;9.250;2023-07-20T14:19:38;2.17;;;1.97;;
2201;SDS011;1107;48.654;9.250;2023-07-20T14:22:05;1.90;;;1.70;;
2201;SDS011;1107;48.654;9.250;2023-07-20T14:24:32;1.93;;;1.73;;
2201;SDS011;1107;48.654;9.250;2023-07-20T14:26:59;1.80;;;1.60;;
2201;SDS011;1107;48.654;9.250;2023-07-20T14:29:26;16.00;;;1.83;;
2201;SDS011;1107;48.654;9.250;2023-07-20T14:31:56;2.07;;;1.97;;
2201;SDS011;1107;48.654;9.250;2023-07-20T14:34:25;2.50;;;2.03;;
2201;SDS011;1107;48.654;9.250;2023-07-20T14:36:51;2.13;;;2.00;;
2201;SDS011;1107;48.654;9.250;2023-07-20T14:39:18;3.87;;;1.80;;
2201;SDS011;1107;48.654;9.250;2023-07-20T14:41:46;3.50;;;1.83;;
2201;SDS011;1107;48.654;9.250;2023-07-20T14:44:13;2.17;;;1.97;;
2201;SDS011;1107;48.654;9.250;2023-07-20T14:46:40;2.17;;;1.97;;
2201;SDS011;1107;48.654;9.250;2023-07-20T14:49:07;1.87;;;1.77;;
2201;SDS011;1107;48.654;9.250;2023-07-20T14:51:37;1.80;;;1.70;;
2201;SDS011;1107;48.654;9.250;2023-07-20T14:54:08;2.10;;;2.00;;
2201;SDS011;1107;48.654;9.250;2023-07-20T14:56:37;2.60;;;2.40;;
2201;SDS011;1107;48.654;9.250;2023-07-20T14:59:04;2.10;;;1.90;;
2201;SDS011;1107;48.654;9.250;2023-07-20T15:01:31;2.30;;;2.10;;
2201;SDS011;1107;48.654;9.250;2023-07-20T15:03:58;2.80;;;2.60;;
2201;SDS011;1107;48.654;9.250;2023-07-20T15:06:26;2.00;;;1.90;;
2201;SDS011;1107;48.654;9.250;2023-07-20T15:08:56;2.20;;;2.00;;
2201;SDS011;1107;48.654;9.250;2023-07-20T15:11:23;4.60;;;2.27;;
2201;SDS011;1107;48.654;9.250;2023-07-20T15:13:50;3.30;;;2.23;;
2201;SDS011;1107;48.654;9.250;2023-07-20T15:16:17;2.67;;;1.80;;
2201;SDS011;1107;48.654;9.250;2023-07-20T15:18:44;3.40;;;2.00;;
2201;SDS011;1107;48.654;9.250;2023-07-20T15:21:11;2.27;;;2.07;;
2201;SDS011;1107;48.654;9.250;2023-07-20T15:23:38;2.33;;;2.13;;
2201;SDS011;1107;48.654;9.250;2023-07-20T15:26:06;2.20;;;1.73;;
2201;SDS011;1107;48.654;9.250;2023-07-20T15:28:33;3.37;;;1.90;;
2201;SDS011;1107;48.654;9.250;2023-07-20T15:31:00;2.23;;;1.70;;
2201;SDS011;1107;48.654;9.250;2023-07-20T15:33:28;2.47;;;2.27;;
2201;SDS011;1107;48.654;9.250;2023-07-20T15:35:55;1.80;;;1.70;;
2201;SDS011;1107;48.654;9.250;2023-07-20T15:38:22;2.13;;;1.93;;
2201;SDS011;1107;48.654;9.250;2023-07-20T15:40:49;2.37;;;1.97;;
2201;SDS011;1107;48.654;9.250;2023-07-20T15:43:17;2.00;;;1.90;;